Time;durP1;ratioP1;P1;durP2;ratioP2;P2;SDS_P1;SDS_P2;PMS_P1;PMS_P2;Temp;Humidity;BMP_temperature;BMP_pressure;BME280_temperature;BME280_humidity;BME280_pressure;Samples;Min_cycle;Max_cycle;Signal;HPM_P1;HPM_P2
2021/09/09 00:00:30;;;;;;;12.93;8.18;;;;;;;7.86;100.00;101249.66;1783731;78;21162;-65
2021/09/09 00:02:57;;;;;;;11.90;7.80;;;;;;;7.82;100.00;101249.59;1780893;78;20956;-65
2021/09/09 00:05:24;;;;;;;11.65;7.05;;;;;;;7.74;100.00;101249.00;1773641;78;21450;-65
2021/09/09 00:07:51;;;;;;;16.52;7.53;;;;;;;7.73;100.00;101255.64;1769528;78;20975;-65
2021/09/09 00:10:18;;;;;;;14.53;8.05;;;;;;;7.74;100.00;101255.98;1769482;79;21045;-65
2021/09/09 00:12:48;;;;;;;10.98;6.83;;;;;;;7.77;100.00;101256.52;1766316;79;21553;-64
2021/09/09 00:15:16;;;;;;;11.18;6.67;;;;;;;7.76;100.00;101254.86;1768188;79;20877;-65
2021/09/09 00:17:45;;;;;;;8.35;5.58;;;;;;;7.75;100.00;101257.61;1774496;79;21075;-65
2021/09/09 00:20:13;;;;;;;9.10;5.62;;;;;;;7.75;100.00;101253.71;1773412;79;21456;-65
2021/09/09 00:22:41;;;;;;;12.35;6.50;;;;;;;7.69;100.00;101258.15;1765041;79;21024;-66
2021/09/09 00:25:09;;;;;;;10.68;6.12;;;;;;;7.64;100.00;101257.28;1762555;79;21137;-65
2021/09/09 00:27:36;;;;;;;13.85;6.90;;;;;;;7.63;100.00;101256.12;1766064;79;21128;-64
2021/09/09 00:30:07;;;;;;;9.78;5.30;;;;;;;7.59;100.00;101249.59;1765487;79;21038;-65
2021/09/09 00:32:34;;;;;;;10.78;5.62;;;;;;;7.55;100.00;101263.31;1775365;79;21502;-65
2021/09/09 00:35:02;;;;;;;11.63;6.10;;;;;;;7.50;100.00;101257.70;1754241;79;20967;-64
2021/09/09 00:37:29;;;;;;;10.63;6.22;;;;;;;7.46;100.00;101255.89;1775289;79;21108;-63
2021/09/09 00:39:55;;;;;;;12.07;5.53;;;;;;;7.43;100.00;101252.75;1745362;80;21030;-66
2021/09/09 00:42:22;;;;;;;12.25;4.60;;;;;;;7.36;100.00;101249.06;1732995;80;20975;-65
2021/09/09 00:44:48;;;;;;;10.28;5.90;;;;;;;7.34;100.00;101258.74;1741126;80;21052;-64
2021/09/09 00:47:14;;;;;;;9.83;5.83;;;;;;;7.33;100.00;101260.52;1733529;80;20983;-63
2021/09/09 00:49:43;;;;;;;9.08;5.58;;;;;;;7.37;100.00;101255.40;1745602;80;21137;-63
2021/09/09 00:52:13;;;;;;;9.45;5.50;;;;;;;7.35;100.00;101260.37;1736586;80;22307;-64
2021/09/09 00:54:45;;;;;;;12.50;6.80;;;;;;;7.32;100.00;101257.59;1740060;80;21014;-65
2021/09/09 00:57:11;;;;;;;12.10;7.58;;;;;;;7.26;100.00;101258.95;1746939;80;21014;-64
2021/09/09 00:59:40;;;;;;;13.60;8.40;;;;;;;7.24;100.00;101254.88;1687346;80;21078;-65
2021/09/09 01:02:06;;;;;;;17.10;8.68;;;;;;;7.20;100.00;101256.11;1746681;80;21153;-66
2021/09/09 01:04:33;;;;;;;16.57;8.25;;;;;;;7.17;100.00;101253.30;1745463;80;21016;-66
2021/09/09 01:07:01;;;;;;;13.43;7.87;;;;;;;7.12;100.00;101252.05;1727385;80;20939;-67
2021/09/09 01:09:28;;;;;;;14.40;8.30;;;;;;;7.07;100.00;101255.88;1732772;80;20963;-65
2021/09/09 01:11:56;;;;;;;12.93;7.72;;;;;;;7.03;100.00;101257.09;1748539;80;21006;-67
2021/09/09 01:14:24;;;;;;;11.65;7.15;;;;;;;7.03;100.00;101261.47;1770077;78;20976;-66
2021/09/09 01:16:52;;;;;;;11.40;6.75;;;;;;;7.00;100.00;101253.47;1768362;79;20977;-66
2021/09/09 01:19:19;;;;;;;10.08;6.12;;;;;;;6.95;100.00;101254.84;1768973;78;21508;-66
2021/09/09 01:21:47;;;;;;;13.30;5.90;;;;;;;6.95;100.00;101254.36;1775991;78;21522;-65
2021/09/09 01:24:18;;;;;;;9.50;5.72;;;;;;;6.94;100.00;101257.92;1757783;79;20999;-67
2021/09/09 01:26:58;;;;;;;9.60;5.58;;;;;;;6.93;100.00;101257.58;1774554;79;21147;-67
2021/09/09 01:29:28;;;;;;;10.75;5.33;;;;;;;6.86;100.00;101252.59;1757837;79;20932;-66
2021/09/09 01:31:55;;;;;;;11.30;6.20;;;;;;;6.83;100.00;101253.67;1766836;79;20988;-61
2021/09/09 01:34:22;;;;;;;10.25;5.22;;;;;;;6.83;100.00;101252.86;1787662;78;21010;-63
2021/09/09 01:36:48;;;;;;;10.55;5.58;;;;;;;6.80;100.00;101247.94;1764794;79;21079;-61
2021/09/09 01:39:16;;;;;;;10.23;5.12;;;;;;;6.77;100.00;101246.42;1758745;80;21065;-62
2021/09/09 01:41:42;;;;;;;9.50;5.90;;;;;;;6.80;100.00;101245.34;1749816;79;22498;-62
2021/09/09 01:44:10;;;;;;;9.98;5.75;;;;;;;6.79;100.00;101250.19;1773225;79;21117;-63
2021/09/09 01:46:38;;;;;;;11.88;6.40;;;;;;;6.71;100.00;101246.16;1769246;79;20964;-63
2021/09/09 01:49:04;;;;;;;11.65;6.92;;;;;;;6.66;100.00;101246.53;1766422;79;21053;-62
2021/09/09 01:51:31;;;;;;;13.90;7.05;;;;;;;6.67;100.00;101249.97;1783194;78;22335;-63
2021/09/09 01:53:58;;;;;;;12.90;6.90;;;;;;;6.69;100.00;101242.86;1747948;78;22433;-64
2021/09/09 01:56:24;;;;;;;10.40;7.08;;;;;;;6.69;100.00;101244.16;1761169;80;20997;-63
2021/09/09 01:58:51;;;;;;;9.93;6.12;;;;;;;6.70;100.00;101244.50;1717170;81;21177;-64
2021/09/09 02:01:18;;;;;;;12.33;6.87;;;;;;;6.72;100.00;101249.08;1749263;80;21324;-62
2021/09/09 02:03:46;;;;;;;12.15;6.53;;;;;;;6.73;100.00;101245.53;1728850;81;22771;-63
2021/09/09 02:06:13;;;;;;;11.60;5.70;;;;;;;6.72;100.00;101243.91;1774066;78;21117;-63
2021/09/09 02:08:42;;;;;;;10.08;6.25;;;;;;;6.70;100.00;101241.91;1793085;78;21553;-64
2021/09/09 02:12:22;;;;;;;11.48;7.30;;;;;;;6.68;100.00;101243.83;1785213;79;20983;-62
2021/09/09 02:14:50;;;;;;;9.18;5.90;;;;;;;6.57;100.00;101241.68;1786674;79;20936;-63
2021/09/09 02:17:16;;;;;;;14.55;7.40;;;;;;;6.54;100.00;101249.71;1785675;79;21836;-62
2021/09/09 02:19:44;;;;;;;8.58;5.95;;;;;;;6.56;100.00;101245.23;1783597;79;21553;-63
2021/09/09 02:22:11;;;;;;;11.70;5.80;;;;;;;6.47;100.00;101246.00;1770284;79;21536;-63
2021/09/09 02:24:37;;;;;;;8.88;6.40;;;;;;;6.44;100.00;101246.74;1765756;79;21014;-63
2021/09/09 02:27:04;;;;;;;12.23;6.60;;;;;;;6.38;100.00;101248.10;1778859;79;21039;-64
2021/09/09 02:29:33;;;;;;;12.28;7.15;;;;;;;6.37;100.00;101252.12;1774056;79;20908;-63
2021/09/09 02:31:59;;;;;;;12.95;6.40;;;;;;;6.33;100.00;101252.39;1781277;78;20976;-64
2021/09/09 02:34:26;;;;;;;11.60;6.87;;;;;;;6.30;100.00;101253.13;1770743;79;20958;-62
2021/09/09 02:36:52;;;;;;;12.82;6.50;;;;;;;6.33;100.00;101255.45;1782423;79;21387;-65
2021/09/09 02:39:19;;;;;;;12.70;7.25;;;;;;;6.29;100.00;101252.78;1776972;79;20943;-65
2021/09/09 02:41:45;;;;;;;11.03;6.65;;;;;;;6.25;100.00;101253.52;1770883;79;21553;-64
2021/09/09 02:44:12;;;;;;;14.98;8.10;;;;;;;6.22;100.00;101258.14;1779965;79;20986;-64
2021/09/09 02:46:40;;;;;;;14.30;7.58;;;;;;;6.20;100.00;101250.96;1768804;79;20971;-64
2021/09/09 02:49:07;;;;;;;15.72;8.08;;;;;;;6.14;100.00;101251.02;1779378;79;20992;-64
2021/09/09 02:51:35;;;;;;;14.87;8.13;;;;;;;6.11;100.00;101243.50;1766044;79;20903;-64
2021/09/09 02:54:01;;;;;;;15.43;8.00;;;;;;;6.06;100.00;101250.37;1785032;79;21087;-63
2021/09/09 02:56:28;;;;;;;14.95;8.40;;;;;;;6.02;100.00;101248.99;1764606;78;20967;-63
2021/09/09 02:58:57;;;;;;;14.87;9.20;;;;;;;6.03;100.00;101252.39;1773292;78;21040;-64
2021/09/09 03:01:26;;;;;;;11.95;7.10;;;;;;;6.00;100.00;101257.34;1743845;80;20935;-64
2021/09/09 03:03:52;;;;;;;14.87;8.03;;;;;;;6.00;100.00;101259.12;1692259;81;21064;-65
2021/09/09 03:06:19;;;;;;;13.80;7.95;;;;;;;5.99;100.00;101260.08;1688514;81;21155;-65
2021/09/09 03:08:45;;;;;;;15.43;8.30;;;;;;;5.99;100.00;101254.42;1687963;81;21492;-65
2021/09/09 03:11:12;;;;;;;11.57;7.42;;;;;;;6.00;100.00;101261.23;1685204;81;22035;-65
2021/09/09 03:13:40;;;;;;;14.93;7.35;;;;;;;6.02;100.00;101267.56;1688401;80;21014;-65
2021/09/09 03:16:07;;;;;;;12.78;7.30;;;;;;;6.05;100.00;101266.83;1688448;81;21011;-65
2021/09/09 03:18:33;;;;;;;14.53;8.28;;;;;;;6.18;100.00;101265.34;1690246;80;21140;-67
2021/09/09 03:21:01;;;;;;;12.75;8.50;;;;;;;6.56;100.00;101271.61;1687111;80;21078;-65
2021/09/09 03:23:27;;;;;;;10.95;7.03;;;;;;;7.09;100.00;101273.09;1689648;81;21141;-66
2021/09/09 03:25:54;;;;;;;10.53;7.03;;;;;;;7.66;100.00;101271.42;1690741;81;21052;-64
2021/09/09 03:28:21;;;;;;;12.90;7.42;;;;;;;8.32;100.00;101264.86;1686850;81;21077;-64
2021/09/09 03:30:47;;;;;;;14.87;7.65;;;;;;;8.97;100.00;101270.00;1688107;81;21824;-64
2021/09/09 03:33:14;;;;;;;12.28;7.92;;;;;;;9.62;100.00;101267.98;1685750;81;21090;-65
2021/09/09 03:35:42;;;;;;;12.20;7.35;;;;;;;10.25;100.00;101262.99;1693354;80;21093;-64
2021/09/09 03:38:10;;;;;;;12.63;7.27;;;;;;;11.01;100.00;101267.79;1704571;80;21030;-65
2021/09/09 03:40:37;;;;;;;12.73;7.80;;;;;;;11.90;100.00;101252.12;1707495;80;21332;-66
2021/09/09 03:43:03;;;;;;;11.30;7.63;;;;;;;12.72;100.00;101248.34;1706660;81;21167;-64
2021/09/09 03:45:31;;;;;;;13.53;7.47;;;;;;;13.54;100.00;101250.70;1700153;80;21225;-64
2021/09/09 03:47:57;;;;;;;13.20;8.17;;;;;;;14.91;100.00;101242.36;1705009;80;21930;-64
2021/09/09 03:50:25;;;;;;;12.00;7.67;;;;;;;14.91;100.00;101242.36;1695946;80;21431;-62
2021/09/09 03:52:52;;;;;;;14.87;8.10;;;;;;;15.72;100.00;101246.30;1699395;80;21699;-63
2021/09/09 03:55:18;;;;;;;11.90;7.13;;;;;;;16.37;100.00;101242.08;1710314;81;21799;-64
2021/09/09 03:57:46;;;;;;;14.10;8.33;;;;;;;16.94;100.00;101242.15;1704635;80;21630;-64
2021/09/09 04:00:15;;;;;;;20.30;9.37;;;;;;;17.50;97.32;101247.83;1706462;80;20940;-64
2021/09/09 04:02:41;;;;;;;20.27;9.00;;;;;;;18.14;85.08;101238.36;1744601;80;20991;-64
2021/09/09 04:05:10;;;;;;;13.50;9.17;;;;;;;18.75;73.01;101241.03;1748570;80;20984;-65
2021/09/09 04:07:36;;;;;;;13.83;9.80;;;;;;;19.35;64.92;101246.69;1735316;80;21120;-64
2021/09/09 04:10:03;;;;;;;14.27;9.63;;;;;;;19.80;58.01;101237.75;1756252;80;21098;-66
2021/09/09 04:12:32;;;;;;;14.47;9.73;;;;;;;20.20;54.44;101235.98;1744047;80;20948;-66
2021/09/09 04:15:02;;;;;;;14.83;8.97;;;;;;;20.68;51.89;101232.50;1706627;82;21023;-65
2021/09/09 04:17:33;;;;;;;12.47;8.63;;;;;;;21.12;49.12;101234.67;1712003;82;22426;-65
2021/09/09 04:19:59;;;;;;;14.93;8.20;;;;;;;21.60;46.81;101235.53;1709061;82;21114;-65
2021/09/09 04:22:28;;;;;;;11.50;8.00;;;;;;;21.92;45.01;101231.95;1680857;83;20984;-65
2021/09/09 04:24:54;;;;;;;15.77;9.37;;;;;;;22.29;43.91;101229.79;1694859;83;20937;-66
2021/09/09 04:27:22;;;;;;;14.17;9.47;;;;;;;22.66;42.70;101232.05;1703830;81;21094;-66
2021/09/09 04:29:50;;;;;;;15.10;8.73;;;;;;;22.88;41.45;101230.84;1711670;82;21308;-65
2021/09/09 04:32:17;;;;;;;14.87;9.03;;;;;;;23.16;40.76;101223.84;1686910;83;22038;-65
2021/09/09 04:34:44;;;;;;;16.00;9.43;;;;;;;23.35;39.84;101223.86;1690022;83;21587;-65
2021/09/09 04:37:11;;;;;;;19.93;10.53;;;;;;;23.55;39.26;101228.12;1696907;83;21119;-66
2021/09/09 04:39:38;;;;;;;16.87;10.37;;;;;;;23.79;38.75;101226.63;1731699;80;21043;-66
2021/09/09 04:42:05;;;;;;;16.07;10.07;;;;;;;24.08;38.00;101233.87;1723444;80;22193;-66
2021/09/09 04:44:33;;;;;;;13.07;10.47;;;;;;;24.36;37.12;101230.70;1724306;80;21067;-66
2021/09/09 04:46:59;;;;;;;14.50;8.80;;;;;;;24.51;36.46;101233.05;1724817;80;21461;-64
2021/09/09 04:49:26;;;;;;;17.73;9.95;;;;;;;24.71;36.29;101229.75;1691124;81;21044;-64
2021/09/09 04:51:52;;;;;;;16.32;9.58;;;;;;;24.94;35.38;101225.14;1700177;82;21030;-65
2021/09/09 04:54:19;;;;;;;13.43;9.70;;;;;;;25.05;34.82;101234.03;1713321;82;21019;-65
2021/09/09 04:56:48;;;;;;;16.73;9.50;;;;;;;25.19;34.56;101226.70;1718986;82;21186;-65
2021/09/09 04:59:16;;;;;;;11.83;8.83;;;;;;;25.40;33.99;101220.94;1701812;82;21030;-64
2021/09/09 05:01:43;;;;;;;13.88;9.43;;;;;;;25.63;33.63;101216.25;1697294;83;20996;-66
2021/09/09 05:04:09;;;;;;;12.90;8.30;;;;;;;25.77;32.70;101216.05;1705631;82;21014;-66
2021/09/09 05:06:36;;;;;;;13.08;8.78;;;;;;;25.75;32.58;101218.16;1673668;83;21498;-64
2021/09/09 05:09:04;;;;;;;12.43;8.13;;;;;;;25.69;32.61;101215.22;1683264;84;21601;-64
2021/09/09 05:11:33;;;;;;;12.18;8.35;;;;;;;25.83;32.65;101210.21;1698849;82;20961;-63
2021/09/09 05:14:00;;;;;;;9.95;8.23;;;;;;;26.07;32.49;101212.71;1731539;82;21021;-64
2021/09/09 05:16:26;;;;;;;14.05;9.40;;;;;;;26.26;32.30;101209.55;1707322;82;21628;-64
2021/09/09 05:18:53;;;;;;;15.93;8.50;;;;;;;26.43;32.01;101205.55;1736120;80;21051;-64
2021/09/09 05:21:19;;;;;;;14.23;9.88;;;;;;;26.37;31.62;101206.63;1713455;82;21073;-66
2021/09/09 05:23:46;;;;;;;16.15;10.28;;;;;;;26.09;31.46;101217.24;1674502;84;20936;-64
2021/09/09 05:26:12;;;;;;;14.73;10.30;;;;;;;25.46;32.06;101215.91;1714444;82;21453;-66
2021/09/09 05:28:40;;;;;;;15.45;9.10;;;;;;;24.72;32.67;101217.22;1703088;82;22185;-66
2021/09/09 05:31:07;;;;;;;14.70;10.60;;;;;;;23.98;33.87;101221.76;1737205;80;20996;-66
2021/09/09 05:33:37;;;;;;;18.62;14.15;;;;;;;23.35;35.10;101219.87;1746381;80;20932;-63
2021/09/09 05:36:05;;;;;;;25.23;18.00;;;;;;;22.89;35.59;101218.34;1745407;80;20913;-64
2021/09/09 05:38:33;;;;;;;20.93;17.80;;;;;;;22.57;36.35;101215.67;1740203;80;21029;-66
2021/09/09 05:40:59;;;;;;;24.70;18.93;;;;;;;22.36;37.13;101217.70;1741953;80;20929;-64
2021/09/09 05:43:28;;;;;;;25.23;18.63;;;;;;;22.18;37.77;101221.87;1737542;80;21089;-64
2021/09/09 05:45:55;;;;;;;23.63;17.60;;;;;;;21.98;38.37;101215.09;1738479;80;21143;-64
2021/09/09 05:48:21;;;;;;;24.67;16.17;;;;;;;21.82;39.21;101227.25;1742884;80;22086;-63
2021/09/09 05:50:48;;;;;;;23.97;14.87;;;;;;;21.71;39.57;101229.92;1712458;82;21482;-64
2021/09/09 05:53:16;;;;;;;20.77;14.20;;;;;;;21.62;39.91;101224.15;1677678;84;21134;-63
2021/09/09 05:55:42;;;;;;;21.13;13.10;;;;;;;21.68;39.98;101227.73;1716142;82;21002;-65
2021/09/09 05:58:11;;;;;;;20.93;13.73;;;;;;;21.91;39.87;101226.36;1727360;82;21039;-63
2021/09/09 06:00:39;;;;;;;18.13;12.37;;;;;;;22.01;39.45;101223.92;1708325;82;21645;-64
2021/09/09 06:03:05;;;;;;;15.37;10.57;;;;;;;21.91;39.19;101225.03;1740423;80;21407;-64
2021/09/09 06:05:34;;;;;;;15.40;10.33;;;;;;;21.78;38.96;101223.95;1715451;82;21587;-64
2021/09/09 06:08:03;;;;;;;16.70;9.97;;;;;;;21.73;38.95;101226.50;1744127;80;21047;-65
2021/09/09 06:10:29;;;;;;;18.60;10.20;;;;;;;21.78;39.30;101223.95;1705754;82;21801;-64
2021/09/09 06:12:56;;;;;;;16.47;10.03;;;;;;;21.99;39.06;101219.34;1702404;82;21509;-64
2021/09/09 06:15:23;;;;;;;16.47;10.50;;;;;;;22.39;38.08;101210.59;1713915;81;21026;-64
2021/09/09 06:17:50;;;;;;;22.27;9.80;;;;;;;22.48;38.15;101206.49;1735749;81;20940;-64
2021/09/09 06:20:16;;;;;;;17.73;10.83;;;;;;;22.78;38.27;101206.73;1697310;81;21049;-63
2021/09/09 06:22:43;;;;;;;16.87;10.97;;;;;;;23.18;37.09;101200.45;1704016;82;21126;-63
2021/09/09 06:25:10;;;;;;;18.53;11.83;;;;;;;23.55;35.73;101197.52;1735993;80;21023;-66
2021/09/09 06:27:38;;;;;;;16.30;10.43;;;;;;;23.86;35.38;101196.59;1729546;80;21078;-64
2021/09/09 06:30:07;;;;;;;14.43;9.75;;;;;;;24.39;34.19;101194.26;1731621;81;20989;-66
2021/09/09 06:32:33;;;;;;;15.50;9.18;;;;;;;25.05;33.17;101196.68;1707682;81;21015;-63
2021/09/09 06:35:00;;;;;;;18.35;11.20;;;;;;;25.72;31.74;101195.98;1710628;81;21917;-64
2021/09/09 06:37:26;;;;;;;14.13;8.90;;;;;;;26.34;30.89;101189.78;1693554;82;22393;-64
2021/09/09 06:39:53;;;;;;;13.88;8.55;;;;;;;27.05;29.38;101189.50;1706983;81;21064;-66
2021/09/09 06:42:19;;;;;;;12.85;8.25;;;;;;;27.75;28.91;101192.30;1734124;80;20999;-64
2021/09/09 06:44:46;;;;;;;12.28;7.35;;;;;;;28.41;28.02;101185.22;1706392;81;21138;-64
2021/09/09 06:47:14;;;;;;;13.00;7.62;;;;;;;28.99;26.88;101186.63;1711831;81;21097;-64
2021/09/09 06:49:40;;;;;;;14.95;6.60;;;;;;;29.63;25.68;101187.28;1698043;81;22404;-63
2021/09/09 06:52:07;;;;;;;12.73;6.92;;;;;;;30.09;25.25;101187.20;1702938;81;20974;-65
2021/09/09 06:54:33;;;;;;;13.32;7.10;;;;;;;30.38;25.18;101185.69;1716750;81;21309;-64
2021/09/09 06:57:00;;;;;;;9.55;6.62;;;;;;;30.73;24.45;101183.77;1684518;83;21501;-64
2021/09/09 06:59:27;;;;;;;9.50;6.37;;;;;;;31.11;24.29;101184.99;1707080;82;22204;-65
2021/09/09 07:01:53;;;;;;;17.05;6.83;;;;;;;31.44;23.58;101183.03;1721255;80;21216;-65
2021/09/09 07:04:20;;;;;;;10.55;6.65;;;;;;;31.63;22.76;101182.91;1735485;80;20952;-65
2021/09/09 07:06:47;;;;;;;9.98;5.53;;;;;;;31.82;22.33;101182.73;1720801;81;21070;-64
2021/09/09 07:09:14;;;;;;;8.35;5.37;;;;;;;31.95;22.21;101183.84;1733946;80;20908;-64
2021/09/09 07:11:42;;;;;;;15.10;5.20;;;;;;;32.17;21.62;101187.13;1704796;81;21002;-64
2021/09/09 07:14:09;;;;;;;7.33;4.45;;;;;;;32.29;21.10;101185.22;1703098;83;21043;-65
2021/09/09 07:16:36;;;;;;;6.87;4.10;;;;;;;32.51;20.71;101185.80;1716371;82;21036;-64
2021/09/09 07:19:02;;;;;;;7.10;4.65;;;;;;;32.72;19.70;101180.10;1687440;81;20924;-64
2021/09/09 07:21:29;;;;;;;8.38;4.35;;;;;;;32.75;19.26;101178.70;1701390;81;21031;-64
2021/09/09 07:23:56;;;;;;;7.25;4.08;;;;;;;32.78;19.62;101177.53;1730964;80;21173;-65
2021/09/09 07:26:23;;;;;;;6.40;4.08;;;;;;;33.03;19.76;101182.81;1735312;80;20995;-65
2021/09/09 07:28:49;;;;;;;9.03;4.12;;;;;;;33.33;18.86;101169.55;1698093;81;21025;-65
2021/09/09 07:31:15;;;;;;;7.03;4.17;;;;;;;33.60;19.02;101167.98;1715879;83;21384;-65
2021/09/09 07:33:42;;;;;;;6.80;4.25;;;;;;;33.79;18.63;101170.92;1718283;81;20988;-65
2021/09/09 07:36:10;;;;;;;5.92;4.15;;;;;;;33.75;18.25;101168.05;1720261;81;20944;-65
2021/09/09 07:38:37;;;;;;;6.47;3.95;;;;;;;33.63;18.13;101170.03;1719084;81;21130;-65
2021/09/09 07:41:03;;;;;;;7.83;4.25;;;;;;;33.70;18.55;101168.22;1682950;83;20918;-65
2021/09/09 07:43:30;;;;;;;5.78;3.62;;;;;;;33.90;18.96;101169.49;1706114;81;21104;-65
2021/09/09 07:45:57;;;;;;;6.12;3.98;;;;;;;34.17;18.34;101168.95;1683108;83;20933;-66
2021/09/09 07:48:23;;;;;;;4.85;3.30;;;;;;;34.47;17.79;101162.52;1701833;83;22537;-67
2021/09/09 07:50:51;;;;;;;6.70;4.00;;;;;;;34.60;17.70;101164.84;1742176;80;21006;-65
2021/09/09 07:53:18;;;;;;;5.53;3.22;;;;;;;34.63;17.61;101158.78;1744297;80;20936;-66
2021/09/09 07:55:46;;;;;;;4.53;2.90;;;;;;;34.81;17.71;101159.49;1745084;80;20979;-66
2021/09/09 07:58:13;;;;;;;4.12;2.67;;;;;;;35.02;17.60;101158.25;1707048;81;20961;-66
2021/09/09 08:00:40;;;;;;;4.50;2.83;;;;;;;35.15;17.36;101153.70;1673664;84;21155;-67
2021/09/09 08:03:06;;;;;;;4.50;3.02;;;;;;;35.20;16.87;101152.97;1696771;82;20992;-66
2021/09/09 08:05:33;;;;;;;5.15;3.58;;;;;;;35.24;16.65;101153.11;1692739;81;21062;-66
2021/09/09 08:08:01;;;;;;;4.70;3.22;;;;;;;34.96;16.76;101149.46;1720391;82;21003;-66
2021/09/09 08:10:27;;;;;;;5.70;3.20;;;;;;;34.67;16.58;101147.53;1696493;82;20960;-67
2021/09/09 08:12:54;;;;;;;4.58;3.52;;;;;;;34.46;17.05;101152.81;1700303;83;21685;-66
2021/09/09 08:15:20;;;;;;;5.45;2.87;;;;;;;34.28;16.82;101148.55;1706659;82;20959;-67
2021/09/09 08:17:47;;;;;;;3.58;2.80;;;;;;;33.92;16.76;101148.34;1711629;83;21523;-67
2021/09/09 08:20:15;;;;;;;5.40;3.50;;;;;;;33.49;17.03;101143.72;1694172;81;20960;-67
2021/09/09 08:22:43;;;;;;;5.20;3.17;;;;;;;33.35;17.39;101138.97;1711009;82;20988;-67
2021/09/09 08:25:11;;;;;;;6.12;3.25;;;;;;;33.11;18.06;101138.02;1701684;82;21153;-66
2021/09/09 08:27:37;;;;;;;6.10;2.92;;;;;;;32.97;18.40;101135.45;1704810;82;20918;-65
2021/09/09 08:30:06;;;;;;;3.75;2.90;;;;;;;33.29;18.02;101127.50;1709143;81;21090;-65
2021/09/09 08:32:33;;;;;;;6.33;3.17;;;;;;;33.63;17.74;101125.98;1706048;83;21497;-66
2021/09/09 08:34:59;;;;;;;3.65;3.12;;;;;;;33.77;17.54;101123.92;1705606;81;21019;-67
2021/09/09 08:37:27;;;;;;;4.75;2.98;;;;;;;33.73;17.43;101122.18;1663643;83;21238;-66
2021/09/09 08:39:54;;;;;;;5.30;3.55;;;;;;;33.65;17.53;101119.72;1674732;83;21008;-65
2021/09/09 08:42:22;;;;;;;5.15;3.33;;;;;;;33.61;17.32;101111.44;1691472;83;21084;-66
2021/09/09 08:44:49;;;;;;;5.12;3.00;;;;;;;33.56;17.34;101110.23;1710084;83;20996;-65
2021/09/09 08:47:16;;;;;;;5.10;4.10;;;;;;;33.29;17.74;101109.94;1702544;81;22473;-65
2021/09/09 08:49:44;;;;;;;5.15;3.58;;;;;;;33.17;17.91;101109.77;1695796;82;21016;-66
2021/09/09 08:52:13;;;;;;;4.97;3.50;;;;;;;32.79;18.01;101110.81;1707578;82;21126;-66
2021/09/09 08:54:40;;;;;;;5.83;3.62;;;;;;;32.76;18.17;101106.03;1713220;82;20971;-67
2021/09/09 08:57:07;;;;;;;5.45;3.65;;;;;;;33.05;18.46;101098.77;1714168;82;21046;-67
2021/09/09 08:59:34;;;;;;;6.55;3.50;;;;;;;33.38;18.17;101093.75;1711354;82;20989;-66
2021/09/09 09:02:07;;;;;;;8.05;4.00;;;;;;;33.32;17.96;101093.09;1688585;83;21118;-67
2021/09/09 09:04:34;;;;;;;6.92;3.60;;;;;;;33.02;18.34;101086.69;1688952;84;21059;-65
2021/09/09 09:07:04;;;;;;;4.40;3.40;;;;;;;32.67;18.57;101081.16;1686435;84;21012;-64
2021/09/09 09:09:34;;;;;;;5.83;3.60;;;;;;;32.57;18.75;101088.17;1726946;80;21065;-67
2021/09/09 09:12:08;;;;;;;5.22;3.83;;;;;;;32.34;18.81;101089.30;1701325;82;20867;-65
2021/09/09 09:14:35;;;;;;;5.33;3.87;;;;;;;32.07;19.00;101091.05;1659710;82;21201;-64
2021/09/09 09:17:06;;;;;;;32.65;7.00;;;;;;;31.95;19.21;101084.86;1700532;84;20984;-64
2021/09/09 09:19:37;;;;;;;8.83;4.33;;;;;;;31.94;19.11;101081.14;1660759;83;20995;-64
2021/09/09 09:22:12;;;;;;;73.55;66.57;;;;;;;32.20;18.80;101079.92;1662866;84;21310;-65
2021/09/09 09:24:50;;;;;;;11.85;10.30;;;;;;;32.41;19.02;101080.24;1735674;80;20934;-64
2021/09/09 09:27:20;;;;;;;8.90;7.50;;;;;;;32.37;19.40;101074.64;1743511;80;21189;-67
2021/09/09 09:30:07;;;;;;;7.62;4.08;;;;;;;32.19;19.17;101073.73;1701743;82;20984;-66
2021/09/09 09:32:34;;;;;;;5.33;3.42;;;;;;;32.21;19.34;101070.20;1669254;84;20997;-65
2021/09/09 09:35:19;;;;;;;5.05;3.35;;;;;;;32.43;18.97;101066.69;1670521;83;21026;-65
2021/09/09 09:37:53;;;;;;;5.05;3.50;;;;;;;32.45;19.03;101063.67;1683796;84;21061;-66
2021/09/09 09:40:32;;;;;;;5.80;3.60;;;;;;;32.50;19.55;101068.13;1681686;83;21924;-66
2021/09/09 09:43:01;;;;;;;5.28;3.30;;;;;;;32.50;19.55;101068.13;1697128;84;20933;-67
2021/09/09 09:45:28;;;;;;;7.22;3.55;;;;;;;32.45;18.97;101065.02;1744030;80;21483;-66
2021/09/09 09:47:57;;;;;;;4.53;3.35;;;;;;;32.43;18.42;101059.95;1744903;80;20991;-66
2021/09/09 09:50:24;;;;;;;6.12;3.50;;;;;;;32.50;18.82;101060.83;1722602;81;20992;-65
2021/09/09 09:53:07;;;;;;;6.47;3.58;;;;;;;32.15;18.86;101048.48;1702810;82;21872;-66
2021/09/09 09:55:41;;;;;;;6.28;3.37;;;;;;;32.15;18.86;101048.48;1688316;82;21085;-65
2021/09/09 09:58:08;;;;;;;6.50;3.65;;;;;;;32.15;18.75;101047.14;1682139;83;21498;-66
2021/09/09 10:00:34;;;;;;;12.45;9.00;;;;;;;32.35;18.98;101042.31;1691849;84;21085;-66
2021/09/09 10:03:01;;;;;;;11.63;7.12;;;;;;;32.52;18.42;101037.59;1667296;83;21043;-66
2021/09/09 10:05:32;;;;;;;8.58;3.72;;;;;;;32.14;18.90;101045.56;1706164;82;21144;-66
2021/09/09 10:07:59;;;;;;;5.45;4.00;;;;;;;31.99;19.62;101040.55;1735152;80;21005;-65
2021/09/09 10:10:26;;;;;;;5.90;4.37;;;;;;;32.03;18.78;101036.13;1695669;81;20973;-65
2021/09/09 10:12:52;;;;;;;84.17;75.83;;;;;;;32.19;18.65;101033.27;1708747;81;20972;-64
2021/09/09 10:15:20;;;;;;;11.88;10.40;;;;;;;31.84;18.28;101034.95;1702913;81;21173;-65
2021/09/09 10:17:48;;;;;;;5.40;3.58;;;;;;;31.45;19.23;101029.69;1707121;81;21093;-64
2021/09/09 10:20:39;;;;;;;5.45;3.25;;;;;;;31.54;19.16;101032.99;1723986;80;21059;-65
2021/09/09 10:23:07;;;;;;;5.65;3.70;;;;;;;31.81;18.98;101026.13;1737540;80;21004;-66
2021/09/09 10:25:53;;;;;;;;;;;;;;;32.12;18.05;101020.78;1739405;80;21039;-64
2021/09/09 10:31:19;;;;;;;4.72;3.22;;;;;;;31.72;18.98;101011.25;1710901;81;21499;-66
2021/09/09 10:33:48;;;;;;;5.65;3.47;;;;;;;31.94;18.95;101008.33;1702469;81;20861;-65
2021/09/09 10:36:44;;;;;;;6.03;3.85;;;;;;;32.34;19.01;101001.61;1705729;81;22223;-64
2021/09/09 10:39:16;;;;;;;5.30;3.40;;;;;;;32.50;18.57;100998.75;1701358;81;21530;-65
2021/09/09 10:41:43;;;;;;;5.12;3.20;;;;;;;32.67;18.28;100993.41;1699889;81;21084;-65
2021/09/09 10:44:09;;;;;;;4.72;3.37;;;;;;;32.84;17.50;100985.09;1678079;83;22306;-65
2021/09/09 10:46:45;;;;;;;5.03;3.50;;;;;;;32.04;17.57;100989.17;1709296;81;21534;-65
2021/09/09 10:49:18;;;;;;;4.72;3.72;;;;;;;32.04;17.57;100989.17;1703332;81;21016;-64
2021/09/09 10:52:10;;;;;;;7.17;3.80;;;;;;;31.51;17.95;100985.88;1702504;81;21087;-64
2021/09/09 10:55:02;;;;;;;7.17;3.55;;;;;;;31.23;19.26;100988.66;1706366;82;21073;-64
2021/09/09 10:57:28;;;;;;;5.70;3.92;;;;;;;31.25;19.16;100987.81;1702029;82;21161;-65
2021/09/09 10:59:55;;;;;;;6.37;3.87;;;;;;;31.42;19.05;100977.74;1698773;82;20922;-62
2021/09/09 11:02:21;;;;;;;4.87;3.40;;;;;;;31.61;19.06;100976.21;1700475;83;21486;-62
2021/09/09 11:07:38;;;;;;;6.35;3.83;;;;;;;31.68;18.62;100971.19;1683152;83;20965;-62
2021/09/09 11:10:06;;;;;;;5.12;3.25;;;;;;;31.33;18.46;100966.64;1704134;82;21188;-62
2021/09/09 11:12:37;;;;;;;5.12;3.87;;;;;;;31.05;18.78;100962.67;1731864;80;20979;-63
2021/09/09 11:15:07;;;;;;;5.95;4.00;;;;;;;30.93;18.75;100959.72;1701847;82;21122;-62
2021/09/09 11:17:35;;;;;;;6.58;3.70;;;;;;;30.74;19.13;100955.81;1719398;81;20977;-61
2021/09/09 11:20:09;;;;;;;22.77;19.45;;;;;;;30.65;19.14;100959.73;1708788;81;20988;-63
2021/09/09 11:22:38;;;;;;;10.78;8.50;;;;;;;30.29;19.28;100951.02;1734033;80;21077;-62
2021/09/09 11:25:17;;;;;;;6.12;4.28;;;;;;;29.92;19.62;100948.45;1694609;81;21221;-62
2021/09/09 11:27:43;;;;;;;12.70;4.30;;;;;;;29.93;20.34;100949.52;1693755;81;21525;-64
2021/09/09 11:30:13;;;;;;;7.70;3.30;;;;;;;30.19;20.31;100947.72;1695799;81;21063;-63